sensor_id;sensor_type;location;lat;lon;timestamp;P1;durP1;ratioP1;P2;durP2;ratioP2
17127;SDS011;8679;50.842;4.322;2023-04-09T00:00:26;5.10;;;2.67;;
17127;SDS011;8679;50.842;4.322;2023-04-09T00:02:52;3.50;;;2.53;;
17127;SDS011;8679;50.842;4.322;2023-04-09T00:05:18;3.80;;;3.23;;
17127;SDS011;8679;50.842;4.322;2023-04-09T00:07:44;5.13;;;3.40;;
17127;SDS011;8679;50.842;4.322;2023-04-09T00:10:10;5.73;;;3.47;;
17127;SDS011;8679;50.842;4.322;2023-04-09T00:12:36;4.50;;;2.60;;
17127;SDS011;8679;50.842;4.322;2023-04-09T00:15:02;4.43;;;2.77;;
17127;SDS011;8679;50.842;4.322;2023-04-09T00:17:28;5.33;;;3.20;;
17127;SDS011;8679;50.842;4.322;2023-04-09T00:19:54;4.13;;;2.63;;
17127;SDS011;8679;50.842;4.322;2023-04-09T00:22:20;5.10;;;3.17;;
17127;SDS011;8679;50.842;4.322;2023-04-09T00:24:46;3.63;;;1.97;;
17127;SDS011;8679;50.842;4.322;2023-04-09T00:27:12;6.23;;;2.70;;
17127;SDS011;8679;50.842;4.322;2023-04-09T00:29:38;9.73;;;4.07;;
17127;SDS011;8679;50.842;4.322;2023-04-09T00:32:04;7.80;;;4.37;;
17127;SDS011;8679;50.842;4.322;2023-04-09T00:34:30;7.70;;;3.57;;
17127;SDS011;8679;50.842;4.322;2023-04-09T00:36:57;4.23;;;2.37;;
17127;SDS011;8679;50.842;4.322;2023-04-09T00:39:23;4.77;;;4.37;;
17127;SDS011;8679;50.842;4.322;2023-04-09T00:41:49;4.87;;;2.77;;
17127;SDS011;8679;50.842;4.322;2023-04-09T00:44:15;5.70;;;3.13;;
17127;SDS011;8679;50.842;4.322;2023-04-09T00:46:41;9.77;;;4.67;;
17127;SDS011;8679;50.842;4.322;2023-04-09T00:49:07;6.93;;;2.90;;
17127;SDS011;8679;50.842;4.322;2023-04-09T00:51:33;6.17;;;4.80;;
17127;SDS011;8679;50.842;4.322;2023-04-09T00:54:00;5.33;;;3.63;;
17127;SDS011;8679;50.842;4.322;2023-04-09T00:56:26;6.93;;;4.03;;
17127;SDS011;8679;50.842;4.322;2023-04-09T00:58:53;4.93;;;3.40;;
17127;SDS011;8679;50.842;4.322;2023-04-09T01:01:19;6.00;;;3.63;;
17127;SDS011;8679;50.842;4.322;2023-04-09T01:03:45;4.17;;;3.07;;
17127;SDS011;8679;50.842;4.322;2023-04-09T01:06:21;3.40;;;2.47;;
17127;SDS011;8679;50.842;4.322;2023-04-09T01:09:13;8.00;;;3.00;;
17127;SDS011;8679;50.842;4.322;2023-04-09T01:14:11;3.47;;;2.70;;
17127;SDS011;8679;50.842;4.322;2023-04-09T01:16:40;5.43;;;3.27;;
17127;SDS011;8679;50.842;4.322;2023-04-09T01:21:56;3.77;;;2.30;;
17127;SDS011;8679;50.842;4.322;2023-04-09T01:27:07;3.83;;;2.60;;
17127;SDS011;8679;50.842;4.322;2023-04-09T01:29:34;6.43;;;4.10;;
17127;SDS011;8679;50.842;4.322;2023-04-09T01:32:03;6.30;;;3.90;;
17127;SDS011;8679;50.842;4.322;2023-04-09T01:34:30;4.20;;;3.37;;
17127;SDS011;8679;50.842;4.322;2023-04-09T01:36:57;4.97;;;2.87;;
17127;SDS011;8679;50.842;4.322;2023-04-09T01:39:24;5.63;;;4.20;;
17127;SDS011;8679;50.842;4.322;2023-04-09T01:41:51;4.30;;;3.00;;
17127;SDS011;8679;50.842;4.322;2023-04-09T01:44:17;8.07;;;3.80;;
17127;SDS011;8679;50.842;4.322;2023-04-09T01:46:45;5.13;;;3.87;;
17127;SDS011;8679;50.842;4.322;2023-04-09T01:49:12;5.50;;;2.90;;
17127;SDS011;8679;50.842;4.322;2023-04-09T01:51:38;5.47;;;3.10;;
17127;SDS011;8679;50.842;4.322;2023-04-09T01:54:04;5.60;;;3.33;;
17127;SDS011;8679;50.842;4.322;2023-04-09T01:56:40;8.67;;;4.07;;
17127;SDS011;8679;50.842;4.322;2023-04-09T01:59:06;5.37;;;3.00;;
17127;SDS011;8679;50.842;4.322;2023-04-09T02:01:34;5.33;;;3.20;;
17127;SDS011;8679;50.842;4.322;2023-04-09T02:04:04;4.37;;;3.03;;
17127;SDS011;8679;50.842;4.322;2023-04-09T02:06:37;6.93;;;4.47;;
17127;SDS011;8679;50.842;4.322;2023-04-09T02:09:06;4.17;;;3.07;;
17127;SDS011;8679;50.842;4.322;2023-04-09T02:11:32;8.67;;;4.93;;
17127;SDS011;8679;50.842;4.322;2023-04-09T02:13:58;5.10;;;3.23;;
17127;SDS011;8679;50.842;4.322;2023-04-09T02:16:25;7.47;;;3.00;;
17127;SDS011;8679;50.842;4.322;2023-04-09T02:18:52;5.77;;;3.70;;
17127;SDS011;8679;50.842;4.322;2023-04-09T02:21:18;4.50;;;4.03;;
17127;SDS011;8679;50.842;4.322;2023-04-09T02:23:44;4.77;;;3.30;;
17127;SDS011;8679;50.842;4.322;2023-04-09T02:26:10;4.40;;;3.33;;
17127;SDS011;8679;50.842;4.322;2023-04-09T02:28:36;7.27;;;4.00;;
17127;SDS011;8679;50.842;4.322;2023-04-09T02:31:02;5.23;;;3.30;;
17127;SDS011;8679;50.842;4.322;2023-04-09T02:33:28;5.10;;;4.60;;
17127;SDS011;8679;50.842;4.322;2023-04-09T02:35:54;3.97;;;3.17;;
17127;SDS011;8679;50.842;4.322;2023-04-09T02:38:20;4.60;;;2.90;;
17127;SDS011;8679;50.842;4.322;2023-04-09T02:40:46;4.70;;;3.40;;
17127;SDS011;8679;50.842;4.322;2023-04-09T02:43:12;4.73;;;3.57;;
17127;SDS011;8679;50.842;4.322;2023-04-09T02:45:38;6.17;;;3.70;;
17127;SDS011;8679;50.842;4.322;2023-04-09T02:48:04;3.77;;;3.37;;
17127;SDS011;8679;50.842;4.322;2023-04-09T02:50:30;7.90;;;3.70;;
17127;SDS011;8679;50.842;4.322;2023-04-09T02:52:56;5.83;;;2.83;;
17127;SDS011;8679;50.842;4.322;2023-04-09T02:55:22;9.90;;;4.17;;
17127;SDS011;8679;50.842;4.322;2023-04-09T02:57:48;7.07;;;4.70;;
17127;SDS011;8679;50.842;4.322;2023-04-09T03:00:14;7.07;;;4.20;;
17127;SDS011;8679;50.842;4.322;2023-04-09T03:02:40;7.07;;;4.80;;
17127;SDS011;8679;50.842;4.322;2023-04-09T03:05:06;6.90;;;3.93;;
17127;SDS011;8679;50.842;4.322;2023-04-09T03:07:32;5.73;;;4.43;;
17127;SDS011;8679;50.842;4.322;2023-04-09T03:09:58;4.60;;;3.03;;
17127;SDS011;8679;50.842;4.322;2023-04-09T03:12:24;7.77;;;3.77;;
17127;SDS011;8679;50.842;4.322;2023-04-09T03:14:50;7.43;;;4.20;;
17127;SDS011;8679;50.842;4.322;2023-04-09T03:17:16;6.07;;;3.30;;
17127;SDS011;8679;50.842;4.322;2023-04-09T03:19:42;4.67;;;3.30;;
17127;SDS011;8679;50.842;4.322;2023-04-09T03:22:08;5.20;;;4.07;;
17127;SDS011;8679;50.842;4.322;2023-04-09T03:24:34;6.77;;;5.40;;
17127;SDS011;8679;50.842;4.322;2023-04-09T03:27:00;5.83;;;4.87;;
17127;SDS011;8679;50.842;4.322;2023-04-09T03:29:26;10.17;;;5.37;;
17127;SDS011;8679;50.842;4.322;2023-04-09T03:31:52;8.83;;;4.13;;
17127;SDS011;8679;50.842;4.322;2023-04-09T03:34:18;7.67;;;4.60;;
17127;SDS011;8679;50.842;4.322;2023-04-09T03:36:44;5.87;;;4.40;;
17127;SDS011;8679;50.842;4.322;2023-04-09T03:39:10;6.03;;;4.80;;
17127;SDS011;8679;50.842;4.322;2023-04-09T03:41:36;5.97;;;3.77;;
17127;SDS011;8679;50.842;4.322;2023-04-09T03:44:02;6.87;;;4.10;;
17127;SDS011;8679;50.842;4.322;2023-04-09T03:46:29;7.27;;;3.27;;
17127;SDS011;8679;50.842;4.322;2023-04-09T03:48:55;7.40;;;4.80;;
17127;SDS011;8679;50.842;4.322;2023-04-09T03:51:21;5.53;;;4.17;;
17127;SDS011;8679;50.842;4.322;2023-04-09T03:53:46;8.87;;;4.47;;
17127;SDS011;8679;50.842;4.322;2023-04-09T03:56:12;6.33;;;4.33;;
17127;SDS011;8679;50.842;4.322;2023-04-09T03:58:38;4.63;;;3.40;;
17127;SDS011;8679;50.842;4.322;2023-04-09T04:01:04;11.00;;;4.77;;
17127;SDS011;8679;50.842;4.322;2023-04-09T04:03:30;5.60;;;3.87;;
17127;SDS011;8679;50.842;4.322;2023-04-09T04:06:00;7.23;;;2.90;;
17127;SDS011;8679;50.842;4.322;2023-04-09T04:08:26;6.83;;;4.23;;
17127;SDS011;8679;50.842;4.322;2023-04-09T04:10:52;7.73;;;4.07;;
17127;SDS011;8679;50.842;4.322;2023-04-09T04:13:18;4.97;;;3.93;;
17127;SDS011;8679;50.842;4.322;2023-04-09T04:15:45;7.63;;;4.13;;
17127;SDS011;8679;50.842;4.322;2023-04-09T04:18:11;7.53;;;4.63;;
17127;SDS011;8679;50.842;4.322;2023-04-09T04:20:37;6.47;;;5.00;;
17127;SDS011;8679;50.842;4.322;2023-04-09T04:23:03;10.33;;;6.43;;
17127;SDS011;8679;50.842;4.322;2023-04-09T04:25:29;6.37;;;4.43;;
17127;SDS011;8679;50.842;4.322;2023-04-09T04:27:55;5.43;;;3.47;;
17127;SDS011;8679;50.842;4.322;2023-04-09T04:30:22;5.73;;;3.77;;
17127;SDS011;8679;50.842;4.322;2023-04-09T04:32:48;6.70;;;4.37;;
17127;SDS011;8679;50.842;4.322;2023-04-09T04:35:14;8.20;;;5.47;;
17127;SDS011;8679;50.842;4.322;2023-04-09T04:37:41;10.83;;;5.40;;
17127;SDS011;8679;50.842;4.322;2023-04-09T04:40:07;7.00;;;5.30;;
17127;SDS011;8679;50.842;4.322;2023-04-09T04:42:33;7.50;;;3.50;;
17127;SDS011;8679;50.842;4.322;2023-04-09T04:45:00;9.47;;;6.40;;
17127;SDS011;8679;50.842;4.322;2023-04-09T04:47:26;4.50;;;4.03;;
17127;SDS011;8679;50.842;4.322;2023-04-09T04:49:52;4.87;;;3.83;;
17127;SDS011;8679;50.842;4.322;2023-04-09T04:52:18;7.30;;;4.00;;
17127;SDS011;8679;50.842;4.322;2023-04-09T04:54:44;6.80;;;4.53;;
17127;SDS011;8679;50.842;4.322;2023-04-09T04:57:10;6.87;;;5.10;;
17127;SDS011;8679;50.842;4.322;2023-04-09T04:59:36;9.53;;;5.97;;
17127;SDS011;8679;50.842;4.322;2023-04-09T05:02:03;4.37;;;3.07;;
17127;SDS011;8679;50.842;4.322;2023-04-09T05:04:29;7.27;;;6.13;;
17127;SDS011;8679;50.842;4.322;2023-04-09T05:06:55;9.40;;;4.73;;
17127;SDS011;8679;50.842;4.322;2023-04-09T05:09:21;7.53;;;4.43;;
17127;SDS011;8679;50.842;4.322;2023-04-09T05:11:47;7.13;;;4.77;;
17127;SDS011;8679;50.842;4.322;2023-04-09T05:14:13;7.80;;;3.97;;
17127;SDS011;8679;50.842;4.322;2023-04-09T05:16:39;9.60;;;5.63;;
17127;SDS011;8679;50.842;4.322;2023-04-09T05:19:05;5.87;;;3.63;;
17127;SDS011;8679;50.842;4.322;2023-04-09T05:21:31;5.40;;;4.13;;
17127;SDS011;8679;50.842;4.322;2023-04-09T05:23:57;9.13;;;6.20;;
17127;SDS011;8679;50.842;4.322;2023-04-09T05:26:23;8.03;;;5.47;;
17127;SDS011;8679;50.842;4.322;2023-04-09T05:28:49;10.93;;;5.63;;
17127;SDS011;8679;50.842;4.322;2023-04-09T05:31:16;8.37;;;5.67;;
17127;SDS011;8679;50.842;4.322;2023-04-09T05:33:42;6.70;;;4.57;;
17127;SDS011;8679;50.842;4.322;2023-04-09T05:36:13;5.80;;;4.97;;
17127;SDS011;8679;50.842;4.322;2023-04-09T05:38:39;5.33;;;4.83;;
17127;SDS011;8679;50.842;4.322;2023-04-09T05:41:05;7.27;;;4.87;;
17127;SDS011;8679;50.842;4.322;2023-04-09T05:43:31;6.33;;;5.03;;
17127;SDS011;8679;50.842;4.322;2023-04-09T05:45:57;8.57;;;5.17;;
17127;SDS011;8679;50.842;4.322;2023-04-09T05:48:23;5.27;;;3.67;;
17127;SDS011;8679;50.842;4.322;2023-04-09T05:50:49;6.70;;;4.37;;
17127;SDS011;8679;50.842;4.322;2023-04-09T05:53:16;6.63;;;5.27;;
17127;SDS011;8679;50.842;4.322;2023-04-09T05:55:43;6.97;;;4.77;;
17127;SDS011;8679;50.842;4.322;2023-04-09T05:58:09;9.43;;;5.10;;
17127;SDS011;8679;50.842;4.322;2023-04-09T06:00:35;10.27;;;6.30;;
17127;SDS011;8679;50.842;4.322;2023-04-09T06:03:01;8.83;;;4.73;;
17127;SDS011;8679;50.842;4.322;2023-04-09T06:05:27;5.57;;;3.57;;
17127;SDS011;8679;50.842;4.322;2023-04-09T06:07:53;8.03;;;3.83;;
17127;SDS011;8679;50.842;4.322;2023-04-09T06:10:19;10.20;;;4.87;;
17127;SDS011;8679;50.842;4.322;2023-04-09T06:12:45;8.27;;;4.73;;
17127;SDS011;8679;50.842;4.322;2023-04-09T06:15:11;6.00;;;3.80;;
17127;SDS011;8679;50.842;4.322;2023-04-09T06:17:37;7.33;;;4.57;;
17127;SDS011;8679;50.842;4.322;2023-04-09T06:20:03;8.50;;;5.80;;
17127;SDS011;8679;50.842;4.322;2023-04-09T06:22:30;6.07;;;4.43;;
17127;SDS011;8679;50.842;4.322;2023-04-09T06:24:56;7.07;;;5.27;;
17127;SDS011;8679;50.842;4.322;2023-04-09T06:27:22;11.47;;;4.43;;
17127;SDS011;8679;50.842;4.322;2023-04-09T06:29:48;6.37;;;3.77;;
17127;SDS011;8679;50.842;4.322;2023-04-09T06:32:15;6.87;;;5.03;;
17127;SDS011;8679;50.842;4.322;2023-04-09T06:34:41;10.47;;;5.63;;
17127;SDS011;8679;50.842;4.322;2023-04-09T06:37:07;7.67;;;5.50;;
17127;SDS011;8679;50.842;4.322;2023-04-09T06:39:33;7.00;;;4.30;;
17127;SDS011;8679;50.842;4.322;2023-04-09T06:41:59;8.63;;;5.03;;
17127;SDS011;8679;50.842;4.322;2023-04-09T06:44:25;9.17;;;5.20;;
17127;SDS011;8679;50.842;4.322;2023-04-09T06:46:51;6.97;;;5.33;;
17127;SDS011;8679;50.842;4.322;2023-04-09T06:49:17;6.70;;;4.13;;
17127;SDS011;8679;50.842;4.322;2023-04-09T06:51:43;5.60;;;4.17;;
17127;SDS011;8679;50.842;4.322;2023-04-09T06:54:09;11.63;;;5.87;;
17127;SDS011;8679;50.842;4.322;2023-04-09T06:56:35;10.40;;;5.77;;
17127;SDS011;8679;50.842;4.322;2023-04-09T06:59:01;10.33;;;5.93;;
17127;SDS011;8679;50.842;4.322;2023-04-09T07:01:27;5.77;;;4.50;;
17127;SDS011;8679;50.842;4.322;2023-04-09T07:03:53;8.53;;;4.50;;
17127;SDS011;8679;50.842;4.322;2023-04-09T07:06:19;7.93;;;4.10;;
17127;SDS011;8679;50.842;4.322;2023-04-09T07:08:45;7.37;;;4.47;;
17127;SDS011;8679;50.842;4.322;2023-04-09T07:11:11;9.50;;;5.60;;
17127;SDS011;8679;50.842;4.322;2023-04-09T07:13:37;9.20;;;5.43;;
17127;SDS011;8679;50.842;4.322;2023-04-09T07:16:03;6.50;;;4.77;;
17127;SDS011;8679;50.842;4.322;2023-04-09T07:18:29;7.03;;;4.67;;
17127;SDS011;8679;50.842;4.322;2023-04-09T07:20:55;8.17;;;4.43;;
17127;SDS011;8679;50.842;4.322;2023-04-09T07:23:21;8.97;;;5.07;;
17127;SDS011;8679;50.842;4.322;2023-04-09T07:25:47;8.40;;;4.87;;
17127;SDS011;8679;50.842;4.322;2023-04-09T07:28:13;8.13;;;4.67;;
17127;SDS011;8679;50.842;4.322;2023-04-09T07:30:39;7.50;;;5.00;;
17127;SDS011;8679;50.842;4.322;2023-04-09T07:33:06;9.03;;;3.77;;
17127;SDS011;8679;50.842;4.322;2023-04-09T07:35:32;8.23;;;4.37;;
17127;SDS011;8679;50.842;4.322;2023-04-09T07:37:58;7.07;;;4.43;;
17127;SDS011;8679;50.842;4.322;2023-04-09T07:40:24;5.43;;;3.33;;
17127;SDS011;8679;50.842;4.322;2023-04-09T07:42:51;8.37;;;4.60;;
17127;SDS011;8679;50.842;4.322;2023-04-09T07:45:18;10.43;;;5.20;;
17127;SDS011;8679;50.842;4.322;2023-04-09T07:47:44;9.50;;;4.30;;
17127;SDS011;8679;50.842;4.322;2023-04-09T07:50:10;8.73;;;4.90;;
17127;SDS011;8679;50.842;4.322;2023-04-09T07:52:36;9.07;;;5.97;;
17127;SDS011;8679;50.842;4.322;2023-04-09T07:55:02;7.23;;;4.37;;
17127;SDS011;8679;50.842;4.322;2023-04-09T07:57:31;6.40;;;4.03;;
17127;SDS011;8679;50.842;4.322;2023-04-09T07:59:57;8.10;;;4.17;;
17127;SDS011;8679;50.842;4.322;2023-04-09T08:02:24;7.87;;;3.93;;
17127;SDS011;8679;50.842;4.322;2023-04-09T08:04:50;7.37;;;4.47;;
17127;SDS011;8679;50.842;4.322;2023-04-09T08:07:16;8.77;;;4.90;;
17127;SDS011;8679;50.842;4.322;2023-04-09T08:09:42;5.70;;;3.40;;
17127;SDS011;8679;50.842;4.322;2023-04-09T08:12:08;8.57;;;3.87;;
17127;SDS011;8679;50.842;4.322;2023-04-09T08:14:35;5.80;;;3.10;;
17127;SDS011;8679;50.842;4.322;2023-04-09T08:17:01;7.80;;;3.73;;
17127;SDS011;8679;50.842;4.322;2023-04-09T08:19:27;8.63;;;4.03;;
17127;SDS011;8679;50.842;4.322;2023-04-09T08:21:53;10.33;;;3.17;;
17127;SDS011;8679;50.842;4.322;2023-04-09T08:24:19;6.20;;;3.17;;
17127;SDS011;8679;50.842;4.322;2023-04-09T08:26:45;5.90;;;3.73;;
17127;SDS011;8679;50.842;4.322;2023-04-09T08:29:11;9.07;;;4.77;;
17127;SDS011;8679;50.842;4.322;2023-04-09T08:31:38;5.87;;;4.10;;
17127;SDS011;8679;50.842;4.322;2023-04-09T08:34:04;6.10;;;3.83;;
17127;SDS011;8679;50.842;4.322;2023-04-09T08:36:30;5.80;;;3.83;;
17127;SDS011;8679;50.842;4.322;2023-04-09T08:38:56;4.60;;;3.37;;
17127;SDS011;8679;50.842;4.322;2023-04-09T08:41:24;7.03;;;4.27;;
17127;SDS011;8679;50.842;4.322;2023-04-09T08:43:53;8.73;;;3.87;;
17127;SDS011;8679;50.842;4.322;2023-04-09T08:46:19;6.63;;;4.47;;
17127;SDS011;8679;50.842;4.322;2023-04-09T08:48:46;7.57;;;4.10;;
17127;SDS011;8679;50.842;4.322;2023-04-09T08:51:15;5.57;;;3.07;;
17127;SDS011;8679;50.842;4.322;2023-04-09T08:53:45;7.50;;;4.20;;
17127;SDS011;8679;50.842;4.322;2023-04-09T08:56:12;5.37;;;3.27;;
17127;SDS011;8679;50.842;4.322;2023-04-09T08:58:40;7.87;;;4.70;;
17127;SDS011;8679;50.842;4.322;2023-04-09T09:01:17;5.93;;;3.77;;
17127;SDS011;8679;50.842;4.322;2023-04-09T09:03:53;5.60;;;3.73;;
17127;SDS011;8679;50.842;4.322;2023-04-09T09:06:20;4.63;;;3.17;;
17127;SDS011;8679;50.842;4.322;2023-04-09T09:08:58;4.90;;;3.07;;
17127;SDS011;8679;50.842;4.322;2023-04-09T09:11:25;5.37;;;3.33;;
17127;SDS011;8679;50.842;4.322;2023-04-09T09:14:00;7.20;;;2.90;;
17127;SDS011;8679;50.842;4.322;2023-04-09T09:16:26;6.43;;;4.17;;
17127;SDS011;8679;50.842;4.322;2023-04-09T09:18:52;6.07;;;3.80;;
17127;SDS011;8679;50.842;4.322;2023-04-09T09:21:20;7.10;;;3.57;;
17127;SDS011;8679;50.842;4.322;2023-04-09T09:23:46;7.40;;;4.03;;
17127;SDS011;8679;50.842;4.322;2023-04-09T09:26:15;8.03;;;4.23;;
17127;SDS011;8679;50.842;4.322;2023-04-09T09:28:42;5.80;;;3.40;;
17127;SDS011;8679;50.842;4.322;2023-04-09T09:31:10;7.77;;;3.13;;
17127;SDS011;8679;50.842;4.322;2023-04-09T09:33:36;8.57;;;4.10;;
17127;SDS011;8679;50.842;4.322;2023-04-09T09:36:02;7.37;;;4.07;;
17127;SDS011;8679;50.842;4.322;2023-04-09T09:38:29;9.50;;;3.57;;
17127;SDS011;8679;50.842;4.322;2023-04-09T09:40:56;6.53;;;3.97;;
17127;SDS011;8679;50.842;4.322;2023-04-09T09:43:23;4.67;;;2.97;;
17127;SDS011;8679;50.842;4.322;2023-04-09T09:45:49;5.33;;;3.37;;
17127;SDS011;8679;50.842;4.322;2023-04-09T09:48:15;7.53;;;3.27;;
17127;SDS011;8679;50.842;4.322;2023-04-09T09:50:41;7.30;;;4.10;;
17127;SDS011;8679;50.842;4.322;2023-04-09T09:53:08;7.77;;;3.83;;
17127;SDS011;8679;50.842;4.322;2023-04-09T09:55:38;9.80;;;3.67;;
17127;SDS011;8679;50.842;4.322;2023-04-09T09:58:11;9.00;;;3.93;;
17127;SDS011;8679;50.842;4.322;2023-04-09T10:00:40;11.50;;;3.83;;
17127;SDS011;8679;50.842;4.322;2023-04-09T10:03:13;5.63;;;3.27;;
17127;SDS011;8679;50.842;4.322;2023-04-09T10:05:40;5.87;;;2.73;;
17127;SDS011;8679;50.842;4.322;2023-04-09T10:08:06;6.47;;;3.57;;
17127;SDS011;8679;50.842;4.322;2023-04-09T10:10:32;7.90;;;4.00;;
17127;SDS011;8679;50.842;4.322;2023-04-09T10:12:59;7.43;;;3.33;;
17127;SDS011;8679;50.842;4.322;2023-04-09T10:15:27;7.43;;;3.57;;
17127;SDS011;8679;50.842;4.322;2023-04-09T10:17:54;8.70;;;3.90;;
17127;SDS011;8679;50.842;4.322;2023-04-09T10:20:27;8.10;;;3.93;;
17127;SDS011;8679;50.842;4.322;2023-04-09T10:22:57;10.07;;;4.53;;
17127;SDS011;8679;50.842;4.322;2023-04-09T10:25:25;13.00;;;4.50;;
17127;SDS011;8679;50.842;4.322;2023-04-09T10:28:00;6.87;;;4.00;;
17127;SDS011;8679;50.842;4.322;2023-04-09T10:30:31;8.30;;;4.80;;
17127;SDS011;8679;50.842;4.322;2023-04-09T10:33:16;5.60;;;3.43;;
17127;SDS011;8679;50.842;4.322;2023-04-09T10:35:50;7.57;;;4.17;;
17127;SDS011;8679;50.842;4.322;2023-04-09T10:38:16;6.40;;;3.47;;
17127;SDS011;8679;50.842;4.322;2023-04-09T10:40:51;6.17;;;3.37;;
17127;SDS011;8679;50.842;4.322;2023-04-09T10:43:17;6.63;;;3.97;;
17127;SDS011;8679;50.842;4.322;2023-04-09T10:45:45;5.60;;;3.10;;
17127;SDS011;8679;50.842;4.322;2023-04-09T10:48:12;6.90;;;4.50;;
17127;SDS011;8679;50.842;4.322;2023-04-09T10:50:41;6.30;;;3.53;;
17127;SDS011;8679;50.842;4.322;2023-04-09T10:53:12;6.47;;;3.50;;
17127;SDS011;8679;50.842;4.322;2023-04-09T10:55:48;5.00;;;2.80;;
17127;SDS011;8679;50.842;4.322;2023-04-09T10:58:15;3.80;;;2.63;;
17127;SDS011;8679;50.842;4.322;2023-04-09T11:00:42;4.47;;;2.33;;
17127;SDS011;8679;50.842;4.322;2023-04-09T11:05:37;4.93;;;3.33;;
17127;SDS011;8679;50.842;4.322;2023-04-09T11:10:33;4.20;;;2.30;;
17127;SDS011;8679;50.842;4.322;2023-04-09T11:13:00;4.22;;;2.17;;
17127;SDS011;8679;50.842;4.322;2023-04-09T11:15:26;4.18;;;2.78;;
17127;SDS011;8679;50.842;4.322;2023-04-09T11:17:52;5.00;;;2.15;;
17127;SDS011;8679;50.842;4.322;2023-04-09T11:20:20;4.75;;;3.05;;
17127;SDS011;8679;50.842;4.322;2023-04-09T11:22:46;5.60;;;2.60;;
17127;SDS011;8679;50.842;4.322;2023-04-09T11:25:23;3.85;;;2.63;;
17127;SDS011;8679;50.842;4.322;2023-04-09T11:27:50;4.47;;;2.70;;
17127;SDS011;8679;50.842;4.322;2023-04-09T11:30:16;7.80;;;3.47;;
17127;SDS011;8679;50.842;4.322;2023-04-09T11:32:42;2.85;;;2.55;;
17127;SDS011;8679;50.842;4.322;2023-04-09T11:35:12;7.95;;;4.20;;
17127;SDS011;8679;50.842;4.322;2023-04-09T11:37:38;3.90;;;2.13;;
17127;SDS011;8679;50.842;4.322;2023-04-09T11:40:05;10.18;;;2.90;;
17127;SDS011;8679;50.842;4.322;2023-04-09T11:42:31;5.13;;;3.05;;
17127;SDS011;8679;50.842;4.322;2023-04-09T11:44:57;5.90;;;3.15;;
17127;SDS011;8679;50.842;4.322;2023-04-09T11:47:24;4.60;;;2.97;;
17127;SDS011;8679;50.842;4.322;2023-04-09T11:49:51;2.47;;;1.83;;
17127;SDS011;8679;50.842;4.322;2023-04-09T11:52:17;5.95;;;3.00;;
17127;SDS011;8679;50.842;4.322;2023-04-09T11:54:49;6.85;;;3.90;;
17127;SDS011;8679;50.842;4.322;2023-04-09T11:57:16;3.10;;;1.67;;
17127;SDS011;8679;50.842;4.322;2023-04-09T11:59:42;4.45;;;2.80;;
17127;SDS011;8679;50.842;4.322;2023-04-09T12:02:08;4.53;;;3.20;;
17127;SDS011;8679;50.842;4.322;2023-04-09T12:04:34;4.03;;;2.58;;
17127;SDS011;8679;50.842;4.322;2023-04-09T12:07:00;6.00;;;2.58;;
17127;SDS011;8679;50.842;4.322;2023-04-09T12:09:26;5.88;;;3.03;;
17127;SDS011;8679;50.842;4.322;2023-04-09T12:11:52;4.05;;;2.75;;
17127;SDS011;8679;50.842;4.322;2023-04-09T12:14:19;2.63;;;2.00;;
17127;SDS011;8679;50.842;4.322;2023-04-09T12:16:49;3.47;;;2.05;;
17127;SDS011;8679;50.842;4.322;2023-04-09T12:19:15;3.05;;;2.05;;
17127;SDS011;8679;50.842;4.322;2023-04-09T12:24:10;3.00;;;1.85;;
17127;SDS011;8679;50.842;4.322;2023-04-09T12:26:37;5.90;;;2.55;;
17127;SDS011;8679;50.842;4.322;2023-04-09T12:29:03;2.20;;;1.35;;
17127;SDS011;8679;50.842;4.322;2023-04-09T12:31:29;2.78;;;1.58;;
17127;SDS011;8679;50.842;4.322;2023-04-09T12:33:55;9.18;;;2.60;;
17127;SDS011;8679;50.842;4.322;2023-04-09T12:36:21;4.82;;;2.70;;
17127;SDS011;8679;50.842;4.322;2023-04-09T12:38:48;7.30;;;3.05;;
17127;SDS011;8679;50.842;4.322;2023-04-09T12:41:14;5.00;;;2.80;;
17127;SDS011;8679;50.842;4.322;2023-04-09T12:43:40;5.78;;;2.33;;
17127;SDS011;8679;50.842;4.322;2023-04-09T12:46:09;4.10;;;2.58;;
17127;SDS011;8679;50.842;4.322;2023-04-09T12:48:35;3.55;;;2.25;;
17127;SDS011;8679;50.842;4.322;2023-04-09T12:51:01;2.65;;;1.98;;
17127;SDS011;8679;50.842;4.322;2023-04-09T12:53:27;4.25;;;2.35;;
17127;SDS011;8679;50.842;4.322;2023-04-09T12:55:53;3.22;;;2.20;;
17127;SDS011;8679;50.842;4.322;2023-04-09T12:58:19;3.65;;;2.05;;
17127;SDS011;8679;50.842;4.322;2023-04-09T13:00:45;3.55;;;1.83;;
17127;SDS011;8679;50.842;4.322;2023-04-09T13:03:11;3.17;;;2.17;;
17127;SDS011;8679;50.842;4.322;2023-04-09T13:05:40;5.82;;;1.88;;
17127;SDS011;8679;50.842;4.322;2023-04-09T13:08:06;3.47;;;1.50;;
17127;SDS011;8679;50.842;4.322;2023-04-09T13:10:32;3.28;;;2.58;;
17127;SDS011;8679;50.842;4.322;2023-04-09T13:12:58;4.28;;;2.15;;
17127;SDS011;8679;50.842;4.322;2023-04-09T13:15:24;4.18;;;2.13;;
17127;SDS011;8679;50.842;4.322;2023-04-09T13:17:51;4.65;;;2.78;;
17127;SDS011;8679;50.842;4.322;2023-04-09T13:20:17;5.47;;;2.45;;
17127;SDS011;8679;50.842;4.322;2023-04-09T13:22:43;2.75;;;2.10;;
17127;SDS011;8679;50.842;4.322;2023-04-09T13:25:16;2.97;;;1.63;;
17127;SDS011;8679;50.842;4.322;2023-04-09T13:27:42;4.93;;;2.40;;
17127;SDS011;8679;50.842;4.322;2023-04-09T13:30:08;4.28;;;2.63;;
17127;SDS011;8679;50.842;4.322;2023-04-09T13:32:34;3.65;;;2.08;;
17127;SDS011;8679;50.842;4.322;2023-04-09T13:35:00;3.45;;;2.10;;
17127;SDS011;8679;50.842;4.322;2023-04-09T13:37:26;4.10;;;2.13;;
17127;SDS011;8679;50.842;4.322;2023-04-09T13:39:52;3.25;;;1.80;;
17127;SDS011;8679;50.842;4.322;2023-04-09T13:42:18;5.03;;;2.45;;
17127;SDS011;8679;50.842;4.322;2023-04-09T13:44:44;3.42;;;1.98;;
17127;SDS011;8679;50.842;4.322;2023-04-09T13:47:11;3.70;;;2.30;;
17127;SDS011;8679;50.842;4.322;2023-04-09T13:49:40;5.53;;;1.98;;
17127;SDS011;8679;50.842;4.322;2023-04-09T13:52:06;4.07;;;1.90;;
17127;SDS011;8679;50.842;4.322;2023-04-09T13:54:32;4.05;;;2.30;;
17127;SDS011;8679;50.842;4.322;2023-04-09T13:56:58;4.28;;;2.35;;
17127;SDS011;8679;50.842;4.322;2023-04-09T13:59:24;2.60;;;2.00;;
17127;SDS011;8679;50.842;4.322;2023-04-09T14:01:50;4.82;;;2.17;;
17127;SDS011;8679;50.842;4.322;2023-04-09T14:04:16;5.40;;;2.55;;
17127;SDS011;8679;50.842;4.322;2023-04-09T14:06:43;4.68;;;2.53;;
17127;SDS011;8679;50.842;4.322;2023-04-09T14:09:10;3.38;;;1.90;;
17127;SDS011;8679;50.842;4.322;2023-04-09T14:11:36;2.97;;;1.63;;
17127;SDS011;8679;50.842;4.322;2023-04-09T14:14:02;3.15;;;1.70;;
17127;SDS011;8679;50.842;4.322;2023-04-09T14:16:29;5.47;;;2.67;;
17127;SDS011;8679;50.842;4.322;2023-04-09T14:18:55;3.78;;;1.88;;
17127;SDS011;8679;50.842;4.322;2023-04-09T14:21:22;7.20;;;2.15;;
17127;SDS011;8679;50.842;4.322;2023-04-09T14:23:48;2.78;;;1.80;;
17127;SDS011;8679;50.842;4.322;2023-04-09T14:26:14;3.40;;;1.70;;
17127;SDS011;8679;50.842;4.322;2023-04-09T14:28:40;2.58;;;1.60;;
17127;SDS011;8679;50.842;4.322;2023-04-09T14:31:07;2.92;;;1.58;;
17127;SDS011;8679;50.842;4.322;2023-04-09T14:33:33;3.70;;;1.50;;
17127;SDS011;8679;50.842;4.322;2023-04-09T14:35:59;2.53;;;1.27;;
17127;SDS011;8679;50.842;4.322;2023-04-09T14:38:25;1.90;;;1.63;;
17127;SDS011;8679;50.842;4.322;2023-04-09T14:40:51;3.13;;;1.50;;
17127;SDS011;8679;50.842;4.322;2023-04-09T14:43:17;1.80;;;1.20;;
17127;SDS011;8679;50.842;4.322;2023-04-09T14:45:44;2.10;;;1.45;;
17127;SDS011;8679;50.842;4.322;2023-04-09T14:48:10;2.60;;;1.38;;
17127;SDS011;8679;50.842;4.322;2023-04-09T14:50:36;2.67;;;1.60;;
17127;SDS011;8679;50.842;4.322;2023-04-09T14:53:03;2.75;;;1.83;;
17127;SDS011;8679;50.842;4.322;2023-04-09T14:55:29;2.03;;;1.25;;
17127;SDS011;8679;50.842;4.322;2023-04-09T14:57:55;1.63;;;1.00;;
17127;SDS011;8679;50.842;4.322;2023-04-09T15:00:22;1.63;;;1.33;;
17127;SDS011;8679;50.842;4.322;2023-04-09T15:02:48;1.15;;;0.82;;
17127;SDS011;8679;50.842;4.322;2023-04-09T15:05:14;1.58;;;1.02;;
17127;SDS011;8679;50.842;4.322;2023-04-09T15:07:40;3.50;;;1.20;;
17127;SDS011;8679;50.842;4.322;2023-04-09T15:10:06;1.23;;;0.82;;
17127;SDS011;8679;50.842;4.322;2023-04-09T15:12:32;1.88;;;1.38;;